createdAt,value
2019-03-30T08:05:00.480Z,88.30
2019-03-30T08:07:31.528Z,97.62
2019-03-30T08:10:01.985Z,73.60
2019-03-30T08:12:32.513Z,67.80
2019-03-30T08:15:03.270Z,59.08
2019-03-30T08:17:34.771Z,50.75
2019-03-30T08:20:08.018Z,53.02
2019-03-30T08:22:38.732Z,51.98
2019-03-30T08:25:11.238Z,50.80
2019-03-30T08:27:42.089Z,51.95
2019-03-30T08:30:12.551Z,54.42
2019-03-30T08:32:43.001Z,61.33
2019-03-30T08:35:13.643Z,50.98
2019-03-30T08:37:44.162Z,53.45
2019-03-30T08:40:14.812Z,49.58
2019-03-30T08:42:45.305Z,50.30
2019-03-30T08:45:15.821Z,45.78
2019-03-30T08:47:46.272Z,46.75
2019-03-30T08:50:16.968Z,43.55
2019-03-30T08:52:47.413Z,43.73
2019-03-30T08:55:17.885Z,44.65
2019-03-30T08:57:48.552Z,37.63
2019-03-30T09:00:25.312Z,37.63
2019-03-30T09:02:55.864Z,37.00
2019-03-30T09:05:27.481Z,30.62
2019-03-30T09:07:58.023Z,34.20
2019-03-30T09:10:28.899Z,28.17
2019-03-30T09:12:59.431Z,29.00
2019-03-30T09:15:29.988Z,23.80
2019-03-30T09:18:00.428Z,21.12
2019-03-30T09:20:30.899Z,26.23
2019-03-30T09:23:01.419Z,25.23
2019-03-30T09:25:33.004Z,28.00
2019-03-30T09:28:03.527Z,24.47
2019-03-30T09:30:34.158Z,31.42
2019-03-30T09:33:04.771Z,30.50
2019-03-30T09:35:35.317Z,28.75
2019-03-30T09:38:05.834Z,32.95
2019-03-30T09:40:36.457Z,30.90
2019-03-30T09:43:06.985Z,33.45
2019-03-30T09:45:39.127Z,27.90
2019-03-30T09:48:09.547Z,34.13
2019-03-30T09:50:41.489Z,33.98
2019-03-30T09:53:12.019Z,29.40
2019-03-30T09:55:42.613Z,30.12
2019-03-30T09:58:13.049Z,29.77
2019-03-30T10:00:43.754Z,33.23
2019-03-30T10:03:14.335Z,30.62
2019-03-30T10:05:45.013Z,34.05
2019-03-30T10:08:15.466Z,27.60
2019-03-30T10:10:46.258Z,26.93
2019-03-30T10:13:16.718Z,30.62
2019-03-30T10:15:47.505Z,32.58
2019-03-30T10:18:18.040Z,33.30
2019-03-30T10:20:48.752Z,30.85
2019-03-30T10:23:19.280Z,29.32
2019-03-30T10:25:50.703Z,31.40
2019-03-30T10:28:21.154Z,31.55
2019-03-30T10:30:51.637Z,32.00
2019-03-30T10:33:22.320Z,28.27
2019-03-30T10:35:52.964Z,32.42
2019-03-30T10:38:23.421Z,31.15
2019-03-30T10:40:53.977Z,29.63
2019-03-30T10:43:24.600Z,31.70
2019-03-30T10:45:55.175Z,31.68
2019-03-30T10:48:25.764Z,34.63
2019-03-30T10:50:56.340Z,30.30
2019-03-30T10:53:26.855Z,31.90
2019-03-30T10:55:57.547Z,30.55
2019-03-30T10:58:28.188Z,36.38
2019-03-30T11:00:58.846Z,29.27
2019-03-30T11:03:29.398Z,31.50
2019-03-30T11:06:25.165Z,30.62
2019-03-30T11:09:04.378Z,31.90
2019-03-30T11:11:38.325Z,31.52
2019-03-30T11:14:08.891Z,32.83
2019-03-30T11:16:39.496Z,34.73
2019-03-30T11:19:10.100Z,38.67
2019-03-30T11:21:40.618Z,42.27
2019-03-30T11:24:11.069Z,32.48
2019-03-30T11:26:41.526Z,30.68
2019-03-30T11:29:48.466Z,29.82
2019-03-30T11:32:32.293Z,36.70
2019-03-30T11:35:02.869Z,32.60
2019-03-30T11:37:33.455Z,33.42
2019-03-30T11:40:06.486Z,32.55
2019-03-30T11:42:37.033Z,37.33
2019-03-30T11:45:07.743Z,33.83
2019-03-30T11:47:38.228Z,40.03
2019-03-30T11:50:08.748Z,42.17
2019-03-30T11:52:39.248Z,50.10
2019-03-30T11:55:20.871Z,38.20
2019-03-30T11:57:42.137Z,36.77
2019-03-30T12:00:12.748Z,36.20
2019-03-30T12:02:43.308Z,34.92
2019-03-30T12:05:13.816Z,33.95
2019-03-30T12:56:08.995Z,34.45
2019-03-30T12:58:40.005Z,33.98
2019-03-30T13:01:11.549Z,31.62
2019-03-30T13:03:43.005Z,33.42
2019-03-30T13:06:14.541Z,63.83
2019-03-30T13:08:47.784Z,37.40
2019-03-30T13:11:19.431Z,32.30
2019-03-30T13:13:50.960Z,39.85
2019-03-30T13:16:22.539Z,34.03
2019-03-30T13:18:54.156Z,32.65
2019-03-30T13:21:25.716Z,34.23
2019-03-30T13:23:57.159Z,29.63
2019-03-30T13:26:28.832Z,35.90
2019-03-30T13:29:00.448Z,36.50
2019-03-30T13:31:32.162Z,59.40
2019-03-30T13:34:03.693Z,32.00
2019-03-30T13:36:39.877Z,41.65
2019-03-30T13:39:11.409Z,28.95
2019-03-30T13:41:42.930Z,31.25
2019-03-30T13:44:14.606Z,41.10
2019-03-30T13:46:46.637Z,34.60
2019-03-30T13:49:18.221Z,40.78
2019-03-30T13:51:49.799Z,31.12
2019-03-30T13:54:21.326Z,30.40
2019-03-30T13:56:52.913Z,29.30
2019-03-30T13:59:24.449Z,29.80
2019-03-30T14:01:56.080Z,35.35
2019-03-30T14:04:27.679Z,170.97
2019-03-30T14:06:59.329Z,41.60
2019-03-30T14:09:30.947Z,33.90
2019-03-30T14:12:02.527Z,31.48
2019-03-30T14:14:34.124Z,23.55
2019-03-30T14:17:05.757Z,31.70
2019-03-30T14:19:37.634Z,34.85
2019-03-30T14:22:09.198Z,24.80
2019-03-30T14:24:40.914Z,34.88
2019-03-30T14:27:12.393Z,29.82
2019-03-30T14:29:44.120Z,24.67
2019-03-30T14:32:15.722Z,22.55
2019-03-30T14:34:47.716Z,25.90
2019-03-30T14:37:19.364Z,31.87
2019-03-30T14:39:50.970Z,23.95
2019-03-30T14:42:22.450Z,30.95
2019-03-30T14:44:54.138Z,24.70
2019-03-30T14:47:25.836Z,26.07
2019-03-30T14:49:57.323Z,26.90
2019-03-30T14:52:28.881Z,28.38
2019-03-30T14:55:00.448Z,29.75
2019-03-30T14:57:32.082Z,24.15
2019-03-30T15:00:04.174Z,32.20
2019-03-30T15:02:35.863Z,27.42
2019-03-30T15:05:08.230Z,21.95
2019-03-30T15:07:39.849Z,25.75
2019-03-30T15:10:11.309Z,23.12
2019-03-30T15:12:42.878Z,27.42
2019-03-30T15:15:14.556Z,25.08
2019-03-30T15:17:46.241Z,27.07
2019-03-30T15:20:17.964Z,33.13
2019-03-30T15:22:49.607Z,101.67
2019-03-30T15:25:21.220Z,99.28
2019-03-30T15:27:52.861Z,46.02
2019-03-30T15:30:24.379Z,69.35
2019-03-30T15:32:55.928Z,55.40
2019-03-30T15:35:27.583Z,59.85
2019-03-30T15:37:59.444Z,53.10
2019-03-30T15:40:30.922Z,39.48
2019-03-30T15:43:02.647Z,25.45
2019-03-30T15:45:34.186Z,32.45
2019-03-30T15:48:05.811Z,22.95
2019-03-30T15:50:37.386Z,26.00
2019-03-30T15:53:10.269Z,23.15
2019-03-30T15:55:41.853Z,24.40
2019-03-30T15:58:13.480Z,26.15
2019-03-30T16:00:44.930Z,43.40
2019-03-30T16:03:16.483Z,33.38
2019-03-30T16:05:47.926Z,36.95
2019-03-30T16:08:19.658Z,30.85
2019-03-30T16:10:52.380Z,28.35
2019-03-30T16:13:24.339Z,31.48
2019-03-30T16:15:55.802Z,23.80
2019-03-30T16:18:27.352Z,30.37
2019-03-30T16:20:58.801Z,22.60
2019-03-30T16:23:30.361Z,24.02
2019-03-30T16:26:01.890Z,25.82
2019-03-30T16:28:33.618Z,26.12
2019-03-30T16:31:05.051Z,24.65
2019-03-30T16:33:36.609Z,26.37
2019-03-30T16:36:08.148Z,28.80
2019-03-30T16:38:39.826Z,28.65
2019-03-30T16:41:11.484Z,29.48
2019-03-30T16:43:43.318Z,28.77
2019-03-30T16:46:14.841Z,29.35
2019-03-30T16:48:46.469Z,42.65
2019-03-30T16:51:18.129Z,48.87
2019-03-30T16:53:49.839Z,51.63
2019-03-30T16:56:21.359Z,59.25
2019-03-30T16:58:52.920Z,58.52
2019-03-30T17:01:24.569Z,71.28
2019-03-30T17:03:56.121Z,74.70
2019-03-30T17:06:27.631Z,75.87
2019-03-30T17:08:59.352Z,75.00
2019-03-30T17:11:31.862Z,77.97
2019-03-30T17:14:03.573Z,55.88
2019-03-30T17:16:35.162Z,32.88
2019-03-30T17:19:07.774Z,46.50
2019-03-30T17:21:39.285Z,33.05
2019-03-30T17:24:10.921Z,38.38
2019-03-30T17:26:43.575Z,31.95
2019-03-30T17:29:15.240Z,37.67
2019-03-30T17:31:47.004Z,43.52
2019-03-30T17:34:18.695Z,51.98
2019-03-30T17:36:50.262Z,41.42
2019-03-30T17:39:21.910Z,44.55
2019-03-30T17:41:53.477Z,47.83
2019-03-30T17:44:25.305Z,49.88
2019-03-30T17:46:56.845Z,53.02
2019-03-30T17:49:28.401Z,54.45
2019-03-30T17:51:59.944Z,51.00
2019-03-30T17:54:31.415Z,54.55
2019-03-30T17:57:02.917Z,55.28
2019-03-30T17:59:34.699Z,51.48
2019-03-30T18:02:06.274Z,58.75
2019-03-30T18:04:39.029Z,58.33
2019-03-30T18:07:13.656Z,59.05
2019-03-30T18:09:45.254Z,54.90
2019-03-30T18:12:16.685Z,53.92
2019-03-30T18:14:48.213Z,67.70
2019-03-30T18:17:19.974Z,73.25
2019-03-30T18:19:51.640Z,71.17
2019-03-30T18:22:23.295Z,74.75
2019-03-30T18:24:54.855Z,85.47
2019-03-30T18:27:26.377Z,77.82
2019-03-30T18:29:58.002Z,94.72
2019-03-30T18:32:29.558Z,84.10
2019-03-30T18:35:04.348Z,101.58
2019-03-30T18:37:35.895Z,84.17
2019-03-30T18:40:09.032Z,108.60
2019-03-30T18:42:40.659Z,100.85
2019-03-30T18:45:17.176Z,113.08
2019-03-30T18:47:48.712Z,101.50
2019-03-30T18:50:20.314Z,119.17
2019-03-30T18:52:51.959Z,116.35
2019-03-30T18:55:26.795Z,111.05
2019-03-30T18:57:58.397Z,107.67
2019-03-30T19:00:29.963Z,106.60
2019-03-30T19:03:01.662Z,103.35
2019-03-30T19:05:33.226Z,105.50
2019-03-30T19:08:04.831Z,114.00
2019-03-30T19:10:36.624Z,104.78
2019-03-30T19:13:08.304Z,100.78
2019-03-30T19:15:39.924Z,102.58
2019-03-30T19:18:11.528Z,101.50
2019-03-30T19:20:45.033Z,116.65
2019-03-30T19:23:16.704Z,112.70
2019-03-30T19:25:48.476Z,114.65
2019-03-30T19:28:20.036Z,131.22
2019-03-30T19:30:51.523Z,112.92
2019-03-30T19:33:23.282Z,97.88
2019-03-30T19:35:54.897Z,104.00
2019-03-30T19:38:26.664Z,99.17
2019-03-30T19:40:59.384Z,112.12
2019-03-30T19:43:30.918Z,118.00
2019-03-30T19:46:02.613Z,119.33
2019-03-30T19:48:36.916Z,93.22
2019-03-30T19:51:07.598Z,96.75
2019-03-30T19:53:39.372Z,116.97
2019-03-30T19:56:10.966Z,125.92
2019-03-30T19:58:42.663Z,108.72
2019-03-30T20:01:15.318Z,112.17
2019-03-30T20:03:46.956Z,119.57
2019-03-30T20:06:18.500Z,141.20
2019-03-30T20:08:50.099Z,122.57
2019-03-30T20:11:21.649Z,124.20
2019-03-30T20:13:53.631Z,114.10
2019-03-30T20:16:25.263Z,116.23
2019-03-30T20:19:11.484Z,137.03
2019-03-30T20:21:30.189Z,142.43
2019-03-30T20:24:01.715Z,164.30
2019-03-30T20:26:33.346Z,207.57
2019-03-30T20:29:05.180Z,231.40
2019-03-30T20:31:37.913Z,234.73
2019-03-30T20:34:09.577Z,203.27
2019-03-30T20:36:41.316Z,146.93
2019-03-30T20:39:12.922Z,144.47
2019-03-30T20:41:44.678Z,120.30
2019-03-30T20:44:16.283Z,124.07
2019-03-30T20:46:47.969Z,130.47
2019-03-30T20:49:19.656Z,116.47
2019-03-30T20:51:51.298Z,118.73
2019-03-30T20:54:22.893Z,129.93
2019-03-30T20:56:55.397Z,116.97
2019-03-30T20:59:39.418Z,113.87
2019-03-30T21:02:00.176Z,105.13
2019-03-30T21:04:31.703Z,101.87
2019-03-30T21:07:03.261Z,94.97
2019-03-30T21:09:34.790Z,98.63
2019-03-30T21:12:06.323Z,95.97
2019-03-30T21:14:37.770Z,91.57
2019-03-30T21:17:09.319Z,96.30
2019-03-30T21:19:40.779Z,100.60
2019-03-30T21:22:12.404Z,102.57
2019-03-30T21:24:43.994Z,102.53
2019-03-30T21:27:15.571Z,107.80
2019-03-30T21:29:54.609Z,101.90
2019-03-30T21:32:20.552Z,92.17
2019-03-30T21:34:52.144Z,97.10
2019-03-30T21:37:23.693Z,92.27
2019-03-30T21:39:55.297Z,87.90
2019-03-30T21:42:26.924Z,92.97
2019-03-30T21:44:58.447Z,91.10
2019-03-30T21:47:30.027Z,98.77
2019-03-30T21:50:01.587Z,96.53
2019-03-30T21:52:33.237Z,89.37
2019-03-30T21:55:05.500Z,91.93
2019-03-30T21:57:37.051Z,87.00
2019-03-30T22:00:10.962Z,93.83
2019-03-30T22:02:42.695Z,94.90
2019-03-30T22:05:14.319Z,90.23
2019-03-30T22:07:45.841Z,91.93
2019-03-30T22:10:22.232Z,97.33
2019-03-30T22:12:54.217Z,92.07
2019-03-30T22:15:29.892Z,101.03
2019-03-30T22:18:01.512Z,113.33
2019-03-30T22:20:33.175Z,111.37
2019-03-30T22:23:04.812Z,128.73
2019-03-30T22:25:36.829Z,131.10
2019-03-30T22:28:08.369Z,106.50
2019-03-30T22:30:39.950Z,106.00
2019-03-30T22:33:11.518Z,84.80
2019-03-30T22:35:43.040Z,80.70
2019-03-30T22:38:14.679Z,89.93
2019-03-30T22:40:46.186Z,78.77
2019-03-30T22:43:17.742Z,89.17
2019-03-30T22:45:49.267Z,90.77
2019-03-30T22:48:21.048Z,88.30
2019-03-30T22:50:52.482Z,86.63
2019-03-30T22:53:24.190Z,107.60
2019-03-30T22:55:55.704Z,102.67
2019-03-30T22:58:27.262Z,91.33
2019-03-30T23:01:03.359Z,99.90
2019-03-30T23:03:47.152Z,93.83
2019-03-30T23:06:20.904Z,88.87
2019-03-30T23:08:53.853Z,98.87
2019-03-30T23:11:25.484Z,97.37
2019-03-30T23:13:57.074Z,105.73
2019-03-30T23:16:28.764Z,84.80
2019-03-30T23:19:00.331Z,90.10
2019-03-30T23:21:31.924Z,106.33
2019-03-30T23:24:03.624Z,87.77
2019-03-30T23:26:35.129Z,90.97
2019-03-30T23:29:06.688Z,88.03
2019-03-30T23:31:38.212Z,88.97
2019-03-30T23:34:09.745Z,98.47
2019-03-30T23:36:41.252Z,105.27
2019-03-30T23:39:12.790Z,100.03
2019-03-30T23:41:44.377Z,100.30
2019-03-30T23:44:16.019Z,91.03
2019-03-30T23:46:47.690Z,97.73
2019-03-30T23:49:19.319Z,102.70
2019-03-30T23:51:50.854Z,92.93
2019-03-30T23:54:22.387Z,87.60
2019-03-30T23:56:53.983Z,93.30
2019-03-30T23:59:25.538Z,94.87
